sensor_id;sensor_type;location;lat;lon;timestamp;temperature;humidity
55269;DHT22;41131;42.990;21.954;2022-10-31T11:53:59;538.40;1689.60
55269;DHT22;41131;42.990;21.954;2022-10-31T11:56:37;538.20;1689.60
55269;DHT22;41131;42.990;21.954;2022-10-31T11:59:14;538.20;1664.00
55269;DHT22;41131;42.990;21.954;2022-10-31T12:01:49;538.30;1689.60
55269;DHT22;41131;42.990;21.954;2022-10-31T12:04:16;538.30;1689.60
55269;DHT22;41131;42.990;21.954;2022-10-31T12:06:44;538.40;1664.00
55269;DHT22;41131;42.990;21.954;2022-10-31T12:09:24;538.40;1664.00
55269;DHT22;41131;42.990;21.954;2022-10-31T12:14:28;538.20;1689.60
55269;DHT22;41131;42.990;21.954;2022-10-31T12:17:19;538.00;1715.20
55269;DHT22;41131;42.990;21.954;2022-10-31T12:22:57;538.20;1689.60
55269;DHT22;41131;42.990;21.954;2022-10-31T12:36:19;538.50;1664.00
55269;DHT22;41131;42.990;21.954;2022-10-31T12:47:04;538.50;1664.00
55269;DHT22;41131;42.990;21.954;2022-10-31T12:49:57;538.50;1664.00
55269;DHT22;41131;42.990;21.954;2022-10-31T12:52:39;563.20;1638.40
55269;DHT22;41131;42.990;21.954;2022-10-31T12:58:03;563.20;1638.40
55269;DHT22;41131;42.990;21.954;2022-10-31T13:00:32;563.30;1638.40
55269;DHT22;41131;42.990;21.954;2022-10-31T13:05:44;563.40;1638.40
55269;DHT22;41131;42.990;21.954;2022-10-31T13:08:22;563.40;1664.00
55269;DHT22;41131;42.990;21.954;2022-10-31T13:11:11;563.40;1638.40
55269;DHT22;41131;42.990;21.954;2022-10-31T13:13:56;563.40;1664.00
55269;DHT22;41131;42.990;21.954;2022-10-31T13:16:28;563.30;1664.00
55269;DHT22;41131;42.990;21.954;2022-10-31T13:21:44;563.40;1664.00
55269;DHT22;41131;42.990;21.954;2022-10-31T13:24:18;563.40;1638.40
55269;DHT22;41131;42.990;21.954;2022-10-31T13:26:52;563.40;1664.00
55269;DHT22;41131;42.990;21.954;2022-10-31T13:29:29;563.40;1689.60
55269;DHT22;41131;42.990;21.954;2022-10-31T13:31:56;563.40;1689.60
55269;DHT22;41131;42.990;21.954;2022-10-31T13:34:38;563.40;1664.00
55269;DHT22;41131;42.990;21.954;2022-10-31T13:37:31;563.40;1638.40
55269;DHT22;41131;42.990;21.954;2022-10-31T13:45:23;563.30;1715.20
55269;DHT22;41131;42.990;21.954;2022-10-31T13:48:01;563.30;1689.60
55269;DHT22;41131;42.990;21.954;2022-10-31T13:50:54;563.40;1689.60
55269;DHT22;41131;42.990;21.954;2022-10-31T13:53:22;563.40;1664.00
55269;DHT22;41131;42.990;21.954;2022-10-31T13:56:01;563.40;1664.00
55269;DHT22;41131;42.990;21.954;2022-10-31T13:58:29;563.40;1664.00
55269;DHT22;41131;42.990;21.954;2022-10-31T14:01:15;563.40;1689.60
55269;DHT22;41131;42.990;21.954;2022-10-31T14:03:44;563.40;1689.60
55269;DHT22;41131;42.990;21.954;2022-10-31T14:06:11;563.50;1664.00
55269;DHT22;41131;42.990;21.954;2022-10-31T14:08:47;563.50;1638.40
55269;DHT22;41131;42.990;21.954;2022-10-31T14:11:24;563.50;1638.40
55269;DHT22;41131;42.990;21.954;2022-10-31T14:13:54;563.50;1664.00
55269;DHT22;41131;42.990;21.954;2022-10-31T14:16:29;563.60;1664.00
55269;DHT22;41131;42.990;21.954;2022-10-31T14:19:00;563.50;1664.00
55269;DHT22;41131;42.990;21.954;2022-10-31T14:21:28;563.60;1664.00
55269;DHT22;41131;42.990;21.954;2022-10-31T14:23:55;563.50;1664.00
55269;DHT22;41131;42.990;21.954;2022-10-31T14:28:56;563.40;1664.00
55269;DHT22;41131;42.990;21.954;2022-10-31T14:31:43;563.50;1689.60
55269;DHT22;41131;42.990;21.954;2022-10-31T14:39:33;563.30;1715.20
55269;DHT22;41131;42.990;21.954;2022-10-31T14:42:13;563.30;1715.20
55269;DHT22;41131;42.990;21.954;2022-10-31T14:47:58;563.20;1740.80
55269;DHT22;41131;42.990;21.954;2022-10-31T14:50:34;563.20;1740.80
55269;DHT22;41131;42.990;21.954;2022-10-31T14:53:04;563.20;1715.20
55269;DHT22;41131;42.990;21.954;2022-10-31T14:55:31;538.50;1740.80
55269;DHT22;41131;42.990;21.954;2022-10-31T14:58:01;538.50;1740.80
55269;DHT22;41131;42.990;21.954;2022-10-31T15:00:29;538.40;1740.80
55269;DHT22;41131;42.990;21.954;2022-10-31T15:05:50;538.40;1715.20
55269;DHT22;41131;42.990;21.954;2022-10-31T15:08:40;538.30;1715.20
55269;DHT22;41131;42.990;21.954;2022-10-31T15:11:16;538.20;1740.80
55269;DHT22;41131;42.990;21.954;2022-10-31T15:13:56;538.20;1766.40
55269;DHT22;41131;42.990;21.954;2022-10-31T15:16:24;538.00;1792.00
55269;DHT22;41131;42.990;21.954;2022-10-31T15:19:12;538.00;1792.00
55269;DHT22;41131;42.990;21.954;2022-10-31T15:21:43;538.00;1792.00
55269;DHT22;41131;42.990;21.954;2022-10-31T15:24:13;537.90;1792.00
55269;DHT22;41131;42.990;21.954;2022-10-31T15:26:45;537.90;1817.60
55269;DHT22;41131;42.990;21.954;2022-10-31T15:29:14;537.80;1817.60
55269;DHT22;41131;42.990;21.954;2022-10-31T15:31:56;537.70;1817.60
55269;DHT22;41131;42.990;21.954;2022-10-31T15:34:37;537.60;1843.20
55269;DHT22;41131;42.990;21.954;2022-10-31T15:37:04;537.60;1843.20
55269;DHT22;41131;42.990;21.954;2022-10-31T15:39:30;512.90;1843.20
55269;DHT22;41131;42.990;21.954;2022-10-31T15:41:57;512.70;1843.20
55269;DHT22;41131;42.990;21.954;2022-10-31T15:44:30;512.60;1868.80
55269;DHT22;41131;42.990;21.954;2022-10-31T15:47:05;512.60;1868.80
55269;DHT22;41131;42.990;21.954;2022-10-31T15:49:40;512.40;1868.80
55269;DHT22;41131;42.990;21.954;2022-10-31T15:54:46;512.30;1894.40
55269;DHT22;41131;42.990;21.954;2022-10-31T15:57:12;512.20;1894.40
55269;DHT22;41131;42.990;21.954;2022-10-31T15:59:41;512.10;1920.00
55269;DHT22;41131;42.990;21.954;2022-10-31T16:02:12;512.10;1920.00
55269;DHT22;41131;42.990;21.954;2022-10-31T16:04:49;512.00;1920.00
55269;DHT22;41131;42.990;21.954;2022-10-31T16:07:18;512.00;1920.00
55269;DHT22;41131;42.990;21.954;2022-10-31T16:09:52;487.30;1920.00
55269;DHT22;41131;42.990;21.954;2022-10-31T16:12:19;487.30;1920.00
55269;DHT22;41131;42.990;21.954;2022-10-31T16:14:45;487.20;1945.60
55269;DHT22;41131;42.990;21.954;2022-10-31T16:17:14;487.10;1945.60
55269;DHT22;41131;42.990;21.954;2022-10-31T16:20:00;487.10;1945.60
55269;DHT22;41131;42.990;21.954;2022-10-31T16:22:36;487.00;1971.20
55269;DHT22;41131;42.990;21.954;2022-10-31T16:25:14;487.00;1945.60
55269;DHT22;41131;42.990;21.954;2022-10-31T16:27:51;487.20;1971.20
55269;DHT22;41131;42.990;21.954;2022-10-31T16:30:38;486.90;1971.20
55269;DHT22;41131;42.990;21.954;2022-10-31T16:33:19;486.90;1971.20
55269;DHT22;41131;42.990;21.954;2022-10-31T16:35:45;486.80;1971.20
55269;DHT22;41131;42.990;21.954;2022-10-31T16:38:11;486.80;1996.80
55269;DHT22;41131;42.990;21.954;2022-10-31T16:40:40;486.80;1971.20
55269;DHT22;41131;42.990;21.954;2022-10-31T16:43:11;486.70;1971.20
55269;DHT22;41131;42.990;21.954;2022-10-31T16:45:43;486.60;1971.20
55269;DHT22;41131;42.990;21.954;2022-10-31T16:48:18;486.50;1971.20
55269;DHT22;41131;42.990;21.954;2022-10-31T16:50:46;486.40;1996.80
55269;DHT22;41131;42.990;21.954;2022-10-31T16:53:13;461.70;1996.80
55269;DHT22;41131;42.990;21.954;2022-10-31T16:55:54;461.70;1996.80
55269;DHT22;41131;42.990;21.954;2022-10-31T16:58:32;461.70;2022.40
55269;DHT22;41131;42.990;21.954;2022-10-31T17:01:00;461.60;2022.40
55269;DHT22;41131;42.990;21.954;2022-10-31T17:03:26;461.50;2022.40
55269;DHT22;41131;42.990;21.954;2022-10-31T17:05:52;461.50;2022.40
55269;DHT22;41131;42.990;21.954;2022-10-31T17:08:20;461.40;2022.40
55269;DHT22;41131;42.990;21.954;2022-10-31T17:10:47;461.40;2022.40
55269;DHT22;41131;42.990;21.954;2022-10-31T17:13:33;461.40;2022.40
55269;DHT22;41131;42.990;21.954;2022-10-31T17:16:01;461.40;2022.40
55269;DHT22;41131;42.990;21.954;2022-10-31T17:18:28;461.40;2022.40
55269;DHT22;41131;42.990;21.954;2022-10-31T17:21:03;461.30;2022.40
55269;DHT22;41131;42.990;21.954;2022-10-31T17:23:31;461.30;2022.40
55269;DHT22;41131;42.990;21.954;2022-10-31T17:25:58;461.20;2048.00
55269;DHT22;41131;42.990;21.954;2022-10-31T17:28:24;461.20;2048.00
55269;DHT22;41131;42.990;21.954;2022-10-31T17:30:53;461.20;2048.00
55269;DHT22;41131;42.990;21.954;2022-10-31T17:33:20;461.00;2073.60
55269;DHT22;41131;42.990;21.954;2022-10-31T17:35:46;461.00;2048.00
55269;DHT22;41131;42.990;21.954;2022-10-31T17:38:12;460.90;2073.60
55269;DHT22;41131;42.990;21.954;2022-10-31T17:40:38;460.90;2073.60
55269;DHT22;41131;42.990;21.954;2022-10-31T17:43:06;460.90;2099.20
55269;DHT22;41131;42.990;21.954;2022-10-31T17:45:33;460.90;2099.20
55269;DHT22;41131;42.990;21.954;2022-10-31T18:00:16;460.90;2099.20
55269;DHT22;41131;42.990;21.954;2022-10-31T18:02:43;436.10;2073.60
55269;DHT22;41131;42.990;21.954;2022-10-31T18:05:09;435.90;2099.20
55269;DHT22;41131;42.990;21.954;2022-10-31T18:07:35;435.90;2099.20
55269;DHT22;41131;42.990;21.954;2022-10-31T18:10:00;435.90;2099.20
55269;DHT22;41131;42.990;21.954;2022-10-31T18:12:27;435.90;2099.20
55269;DHT22;41131;42.990;21.954;2022-10-31T18:14:53;436.00;2099.20
55269;DHT22;41131;42.990;21.954;2022-10-31T18:17:20;435.60;2124.80
55269;DHT22;41131;42.990;21.954;2022-10-31T18:19:46;435.70;2099.20
55269;DHT22;41131;42.990;21.954;2022-10-31T18:22:12;435.90;2099.20
55269;DHT22;41131;42.990;21.954;2022-10-31T18:24:38;435.50;2124.80
55269;DHT22;41131;42.990;21.954;2022-10-31T18:27:04;435.60;2099.20
55269;DHT22;41131;42.990;21.954;2022-10-31T18:29:30;435.60;2124.80
55269;DHT22;41131;42.990;21.954;2022-10-31T18:31:56;435.50;2124.80
55269;DHT22;41131;42.990;21.954;2022-10-31T18:34:22;435.40;2150.40
55269;DHT22;41131;42.990;21.954;2022-10-31T18:36:48;435.40;2150.40
55269;DHT22;41131;42.990;21.954;2022-10-31T18:39:14;435.50;2150.40
55269;DHT22;41131;42.990;21.954;2022-10-31T18:41:40;435.40;2150.40
55269;DHT22;41131;42.990;21.954;2022-10-31T18:44:06;435.30;2176.00
55269;DHT22;41131;42.990;21.954;2022-10-31T18:46:32;435.30;2176.00
55269;DHT22;41131;42.990;21.954;2022-10-31T18:48:59;435.30;2150.40
55269;DHT22;41131;42.990;21.954;2022-10-31T18:51:25;435.30;2150.40
55269;DHT22;41131;42.990;21.954;2022-10-31T18:54:00;435.20;2176.00
55269;DHT22;41131;42.990;21.954;2022-10-31T18:56:27;435.20;2176.00
55269;DHT22;41131;42.990;21.954;2022-10-31T18:58:53;435.20;2176.00
55269;DHT22;41131;42.990;21.954;2022-10-31T19:01:20;435.20;2176.00
55269;DHT22;41131;42.990;21.954;2022-10-31T19:03:52;410.50;2176.00
55269;DHT22;41131;42.990;21.954;2022-10-31T19:06:18;410.50;2176.00
55269;DHT22;41131;42.990;21.954;2022-10-31T19:08:44;410.50;2176.00
55269;DHT22;41131;42.990;21.954;2022-10-31T19:11:12;435.20;2176.00
55269;DHT22;41131;42.990;21.954;2022-10-31T19:13:39;410.50;2176.00
55269;DHT22;41131;42.990;21.954;2022-10-31T19:16:13;410.40;2201.60
55269;DHT22;41131;42.990;21.954;2022-10-31T19:18:40;410.30;2176.00
55269;DHT22;41131;42.990;21.954;2022-10-31T19:21:07;410.30;2201.60
55269;DHT22;41131;42.990;21.954;2022-10-31T19:23:33;410.50;2176.00
55269;DHT22;41131;42.990;21.954;2022-10-31T20:31:54;409.90;2176.00
55269;DHT22;41131;42.990;21.954;2022-10-31T20:34:21;384.90;2176.00
55269;DHT22;41131;42.990;21.954;2022-10-31T20:36:47;384.90;2176.00
55269;DHT22;41131;42.990;21.954;2022-10-31T20:39:13;384.70;2176.00
55269;DHT22;41131;42.990;21.954;2022-10-31T20:41:38;384.70;2176.00
55269;DHT22;41131;42.990;21.954;2022-10-31T20:44:04;384.60;2201.60
55269;DHT22;41131;42.990;21.954;2022-10-31T20:46:31;384.60;2201.60
55269;DHT22;41131;42.990;21.954;2022-10-31T20:48:57;384.50;2201.60
55269;DHT22;41131;42.990;21.954;2022-10-31T20:51:25;384.50;2227.20
55269;DHT22;41131;42.990;21.954;2022-10-31T20:53:54;384.50;2227.20
55269;DHT22;41131;42.990;21.954;2022-10-31T20:56:21;384.50;2227.20
55269;DHT22;41131;42.990;21.954;2022-10-31T20:58:48;384.50;2227.20
55269;DHT22;41131;42.990;21.954;2022-10-31T21:01:16;384.50;2201.60
55269;DHT22;41131;42.990;21.954;2022-10-31T21:03:43;384.40;2201.60
55269;DHT22;41131;42.990;21.954;2022-10-31T21:06:10;384.40;2201.60
55269;DHT22;41131;42.990;21.954;2022-10-31T21:08:36;384.30;2227.20
55269;DHT22;41131;42.990;21.954;2022-10-31T21:11:10;384.40;2227.20
55269;DHT22;41131;42.990;21.954;2022-10-31T21:13:37;384.20;2227.20
55269;DHT22;41131;42.990;21.954;2022-10-31T21:16:06;384.20;2227.20
55269;DHT22;41131;42.990;21.954;2022-10-31T21:18:36;384.20;2227.20
55269;DHT22;41131;42.990;21.954;2022-10-31T21:21:16;384.20;2227.20
55269;DHT22;41131;42.990;21.954;2022-10-31T21:23:43;384.10;2227.20
55269;DHT22;41131;42.990;21.954;2022-10-31T21:26:18;384.10;2227.20
55269;DHT22;41131;42.990;21.954;2022-10-31T21:28:46;384.00;2227.20
55269;DHT22;41131;42.990;21.954;2022-10-31T21:31:14;384.00;2227.20
55269;DHT22;41131;42.990;21.954;2022-10-31T21:33:41;359.30;2227.20
55269;DHT22;41131;42.990;21.954;2022-10-31T21:36:07;359.30;2252.80
55269;DHT22;41131;42.990;21.954;2022-10-31T21:38:34;359.20;2252.80
55269;DHT22;41131;42.990;21.954;2022-10-31T21:43:29;359.20;2252.80
55269;DHT22;41131;42.990;21.954;2022-10-31T21:46:08;359.20;2227.20
55269;DHT22;41131;42.990;21.954;2022-10-31T21:48:35;359.20;2227.20
55269;DHT22;41131;42.990;21.954;2022-10-31T21:51:04;359.20;2227.20
55269;DHT22;41131;42.990;21.954;2022-10-31T21:53:30;359.20;2227.20
55269;DHT22;41131;42.990;21.954;2022-10-31T21:56:15;359.10;2252.80
55269;DHT22;41131;42.990;21.954;2022-10-31T21:58:40;359.10;2252.80
55269;DHT22;41131;42.990;21.954;2022-10-31T22:01:06;359.00;2252.80
55269;DHT22;41131;42.990;21.954;2022-10-31T22:03:36;359.00;2252.80
55269;DHT22;41131;42.990;21.954;2022-10-31T22:06:06;358.90;2278.40
55269;DHT22;41131;42.990;21.954;2022-10-31T22:08:33;359.00;2252.80
55269;DHT22;41131;42.990;21.954;2022-10-31T22:11:09;359.00;2252.80
55269;DHT22;41131;42.990;21.954;2022-10-31T22:13:36;358.90;2252.80
55269;DHT22;41131;42.990;21.954;2022-10-31T22:16:04;358.90;2278.40
55269;DHT22;41131;42.990;21.954;2022-10-31T22:18:30;358.90;2252.80
55269;DHT22;41131;42.990;21.954;2022-10-31T22:21:03;358.90;2252.80
55269;DHT22;41131;42.990;21.954;2022-10-31T22:23:29;358.90;2252.80
55269;DHT22;41131;42.990;21.954;2022-10-31T22:25:56;358.80;2278.40
55269;DHT22;41131;42.990;21.954;2022-10-31T22:28:23;358.80;2278.40
55269;DHT22;41131;42.990;21.954;2022-10-31T22:30:53;358.80;2278.40
55269;DHT22;41131;42.990;21.954;2022-10-31T22:33:18;358.80;2278.40
55269;DHT22;41131;42.990;21.954;2022-10-31T22:35:44;358.80;2278.40
55269;DHT22;41131;42.990;21.954;2022-10-31T22:38:10;358.70;2278.40
55269;DHT22;41131;42.990;21.954;2022-10-31T22:40:35;358.70;2278.40
55269;DHT22;41131;42.990;21.954;2022-10-31T22:43:01;358.70;2278.40
55269;DHT22;41131;42.990;21.954;2022-10-31T22:45:27;358.70;2278.40
55269;DHT22;41131;42.990;21.954;2022-10-31T22:47:52;358.70;2278.40
55269;DHT22;41131;42.990;21.954;2022-10-31T22:50:19;358.60;2278.40
55269;DHT22;41131;42.990;21.954;2022-10-31T22:52:45;358.60;2278.40
55269;DHT22;41131;42.990;21.954;2022-10-31T22:55:10;358.60;2278.40
55269;DHT22;41131;42.990;21.954;2022-10-31T22:57:36;358.60;2278.40
55269;DHT22;41131;42.990;21.954;2022-10-31T23:00:04;358.50;2278.40
55269;DHT22;41131;42.990;21.954;2022-10-31T23:02:33;358.50;2278.40
55269;DHT22;41131;42.990;21.954;2022-10-31T23:04:59;358.40;2304.00
55269;DHT22;41131;42.990;21.954;2022-10-31T23:07:25;358.40;2304.00
55269;DHT22;41131;42.990;21.954;2022-10-31T23:09:51;358.40;2304.00
55269;DHT22;41131;42.990;21.954;2022-10-31T23:12:18;333.70;2304.00
55269;DHT22;41131;42.990;21.954;2022-10-31T23:15:02;333.70;2304.00
55269;DHT22;41131;42.990;21.954;2022-10-31T23:17:28;333.60;2329.60
55269;DHT22;41131;42.990;21.954;2022-10-31T23:19:54;333.60;2329.60
55269;DHT22;41131;42.990;21.954;2022-10-31T23:22:19;333.60;2329.60
55269;DHT22;41131;42.990;21.954;2022-10-31T23:24:46;333.60;2329.60
55269;DHT22;41131;42.990;21.954;2022-10-31T23:29:53;333.60;2304.00
55269;DHT22;41131;42.990;21.954;2022-10-31T23:32:24;333.60;2304.00
55269;DHT22;41131;42.990;21.954;2022-10-31T23:34:52;333.60;2304.00
55269;DHT22;41131;42.990;21.954;2022-10-31T23:37:18;333.60;2304.00
55269;DHT22;41131;42.990;21.954;2022-10-31T23:39:45;333.50;2304.00
55269;DHT22;41131;42.990;21.954;2022-10-31T23:42:11;333.50;2304.00
55269;DHT22;41131;42.990;21.954;2022-10-31T23:44:38;333.50;2304.00
55269;DHT22;41131;42.990;21.954;2022-10-31T23:47:05;333.40;2304.00
55269;DHT22;41131;42.990;21.954;2022-10-31T23:49:31;333.40;2304.00
55269;DHT22;41131;42.990;21.954;2022-10-31T23:51:57;333.40;2304.00
55269;DHT22;41131;42.990;21.954;2022-10-31T23:54:23;333.40;2329.60
55269;DHT22;41131;42.990;21.954;2022-10-31T23:56:49;333.40;2329.60
55269;DHT22;41131;42.990;21.954;2022-10-31T23:59:15;333.30;2329.60
